createdAt,value
2022-11-14T00:01:29.181Z,114.57
2022-11-14T00:04:14.383Z,104.75
2022-11-14T00:06:59.507Z,107.55
2022-11-14T00:09:44.452Z,119.18
2022-11-14T00:12:29.374Z,124.32
2022-11-14T00:15:14.885Z,123.40
2022-11-14T00:17:59.646Z,118.35
2022-11-14T00:20:48.172Z,118.30
2022-11-14T00:23:33.340Z,124.07
2022-11-14T00:26:18.199Z,130.43
2022-11-14T00:29:03.206Z,122.50
2022-11-14T00:31:48.022Z,131.10
2022-11-14T00:34:33.383Z,125.03
2022-11-14T00:37:18.264Z,125.68
2022-11-14T00:40:04.213Z,120.95
2022-11-14T00:42:49.169Z,123.85
2022-11-14T00:45:33.921Z,136.75
2022-11-14T00:48:18.938Z,122.40
2022-11-14T00:51:03.664Z,126.75
2022-11-14T00:53:48.629Z,121.80
2022-11-14T00:56:33.643Z,126.03
2022-11-14T00:59:18.603Z,124.82
2022-11-14T01:02:03.492Z,130.05
2022-11-14T01:04:48.505Z,127.28
2022-11-14T01:07:33.533Z,127.47
2022-11-14T01:10:18.938Z,131.80
2022-11-14T01:13:03.878Z,131.02
2022-11-14T01:15:49.787Z,143.52
2022-11-14T01:18:36.351Z,137.38
2022-11-14T01:21:21.460Z,140.70
2022-11-14T01:24:06.868Z,134.60
2022-11-14T01:26:55.033Z,135.20
2022-11-14T01:29:40.422Z,136.75
2022-11-14T01:32:26.656Z,145.18
2022-11-14T01:35:11.623Z,143.20
2022-11-14T01:37:56.464Z,134.82
2022-11-14T01:40:43.126Z,132.65
2022-11-14T01:43:33.956Z,142.02
2022-11-14T01:46:39.162Z,142.48
2022-11-14T01:49:29.630Z,132.68
2022-11-14T01:52:20.156Z,144.40
2022-11-14T01:55:08.654Z,139.70
2022-11-14T01:57:53.633Z,133.80
2022-11-14T02:00:38.788Z,134.57
2022-11-14T02:03:24.250Z,132.27
2022-11-14T02:06:14.080Z,141.40
2022-11-14T02:09:02.604Z,140.10
2022-11-14T02:11:48.410Z,131.52
2022-11-14T02:14:35.698Z,144.63
2022-11-14T02:17:30.027Z,143.57
2022-11-14T02:20:19.372Z,142.80
2022-11-14T02:23:04.698Z,152.13
2022-11-14T02:25:49.451Z,150.88
2022-11-14T02:28:34.439Z,154.52
2022-11-14T02:31:19.261Z,148.15
2022-11-14T02:34:04.098Z,150.88
2022-11-14T02:36:49.068Z,148.35
2022-11-14T02:39:33.957Z,150.10
2022-11-14T02:42:18.893Z,153.70
2022-11-14T02:45:04.401Z,149.55
2022-11-14T02:47:49.424Z,145.25
2022-11-14T02:50:34.610Z,149.93
2022-11-14T02:53:19.437Z,152.95
2022-11-14T02:56:04.579Z,145.25
2022-11-14T02:58:49.745Z,140.20
2022-11-14T03:01:34.790Z,150.32
2022-11-14T03:04:19.654Z,147.43
2022-11-14T03:07:04.633Z,148.35
2022-11-14T03:09:49.347Z,142.30
2022-11-14T03:12:34.222Z,148.98
2022-11-14T03:15:19.034Z,142.73
2022-11-14T03:18:03.960Z,145.13
2022-11-14T03:20:49.043Z,142.18
2022-11-14T03:23:34.363Z,140.35
2022-11-14T03:26:19.814Z,145.68
2022-11-14T03:29:04.879Z,136.57
2022-11-14T03:31:49.961Z,147.93
2022-11-14T03:34:34.843Z,129.00
2022-11-14T03:37:19.734Z,141.95
2022-11-14T03:40:04.973Z,142.00
2022-11-14T03:42:49.937Z,145.70
2022-11-14T03:45:37.322Z,143.63
2022-11-14T03:48:22.255Z,128.88
2022-11-14T03:51:07.381Z,133.63
2022-11-14T03:53:52.302Z,142.30
2022-11-14T03:56:37.712Z,148.27
2022-11-14T03:59:22.584Z,145.63
2022-11-14T04:02:07.544Z,147.65
2022-11-14T04:04:52.562Z,140.45
2022-11-14T04:07:37.473Z,134.80
2022-11-14T04:10:22.433Z,135.32
2022-11-14T04:13:08.102Z,145.18
2022-11-14T04:15:57.573Z,145.48
2022-11-14T04:18:42.760Z,129.50
2022-11-14T04:21:27.630Z,135.35
2022-11-14T04:24:12.502Z,127.30
2022-11-14T04:26:57.362Z,134.07
2022-11-14T04:29:42.264Z,135.27
2022-11-14T04:32:27.222Z,129.27
2022-11-14T04:35:11.999Z,138.35
2022-11-14T04:37:57.019Z,142.05
2022-11-14T04:40:48.534Z,135.55
2022-11-14T04:43:33.670Z,142.52
2022-11-14T04:46:18.669Z,142.20
2022-11-14T04:49:03.451Z,145.50
2022-11-14T04:51:49.985Z,139.93
2022-11-14T04:54:35.101Z,144.25
2022-11-14T04:57:20.030Z,149.10
2022-11-14T05:00:05.902Z,148.10
2022-11-14T05:02:51.141Z,141.57
2022-11-14T05:05:41.639Z,135.95
2022-11-14T05:08:27.123Z,107.32
2022-11-14T05:11:17.064Z,140.57
2022-11-14T05:14:01.937Z,147.20
2022-11-14T05:16:46.951Z,137.85
2022-11-14T05:19:31.853Z,136.52
2022-11-14T05:22:17.140Z,140.65
2022-11-14T05:25:02.246Z,147.23
2022-11-14T05:27:47.376Z,144.70
2022-11-14T05:30:32.845Z,143.32
2022-11-14T05:33:17.514Z,142.15
2022-11-14T05:36:10.790Z,160.45
2022-11-14T05:38:56.056Z,154.60
2022-11-14T05:41:40.999Z,151.32
2022-11-14T05:44:25.939Z,144.18
2022-11-14T05:47:10.784Z,150.68
2022-11-14T05:49:55.568Z,143.10
2022-11-14T05:52:40.536Z,156.40
2022-11-14T05:55:25.433Z,148.70
2022-11-14T05:58:10.418Z,158.82
2022-11-14T06:01:11.670Z,161.32
2022-11-14T06:03:57.185Z,152.07
2022-11-14T06:06:42.216Z,160.23
2022-11-14T06:09:27.849Z,151.43
2022-11-14T06:12:13.551Z,157.43
2022-11-14T06:15:21.890Z,148.93
2022-11-14T06:18:07.926Z,161.55
2022-11-14T06:20:53.373Z,157.23
2022-11-14T06:23:39.245Z,158.23
2022-11-14T06:26:30.498Z,144.13
2022-11-14T06:29:15.909Z,152.65
2022-11-14T06:32:01.081Z,141.75
2022-11-14T06:34:46.188Z,154.85
2022-11-14T06:37:33.653Z,158.02
2022-11-14T06:40:19.324Z,168.50
2022-11-14T06:43:04.318Z,165.45
2022-11-14T06:45:49.289Z,160.13
2022-11-14T06:48:34.495Z,149.77
2022-11-14T06:51:19.862Z,156.93
2022-11-14T06:54:04.907Z,153.05
2022-11-14T06:56:49.928Z,156.00
2022-11-14T06:59:34.820Z,152.60
2022-11-14T07:02:22.020Z,143.95
2022-11-14T07:05:07.269Z,152.35
2022-11-14T07:07:52.473Z,156.30
2022-11-14T07:10:37.389Z,158.70
2022-11-14T07:13:22.754Z,143.05
2022-11-14T07:16:07.850Z,157.90
2022-11-14T07:18:53.043Z,153.25
2022-11-14T07:21:38.135Z,151.63
2022-11-14T07:24:23.284Z,148.65
2022-11-14T07:27:10.985Z,152.88
2022-11-14T07:29:55.850Z,130.90
2022-11-14T07:32:40.990Z,152.65
2022-11-14T07:35:26.304Z,152.68
2022-11-14T07:38:11.205Z,141.30
2022-11-14T07:40:59.852Z,141.75
2022-11-14T07:43:45.602Z,147.15
2022-11-14T07:46:30.593Z,138.07
2022-11-14T07:49:15.646Z,133.70
2022-11-14T07:52:00.897Z,132.50
2022-11-14T07:54:45.738Z,139.23
2022-11-14T07:57:32.396Z,132.93
2022-11-14T08:00:19.632Z,132.70
2022-11-14T08:03:07.063Z,131.55
2022-11-14T08:05:52.073Z,125.28
2022-11-14T08:08:37.549Z,128.27
2022-11-14T08:11:42.372Z,118.85
2022-11-14T08:14:27.319Z,121.38
2022-11-14T08:17:12.418Z,123.65
2022-11-14T08:19:57.362Z,121.70
2022-11-14T08:22:42.271Z,119.18
2022-11-14T08:25:27.043Z,122.50
2022-11-14T08:28:11.889Z,125.00
2022-11-14T08:31:01.919Z,118.00
2022-11-14T08:33:49.819Z,113.67
2022-11-14T08:36:34.938Z,110.72
2022-11-14T08:39:19.944Z,105.35
2022-11-14T08:42:04.894Z,105.18
2022-11-14T08:44:52.112Z,101.10
2022-11-14T08:47:37.345Z,106.22
2022-11-14T08:50:22.714Z,102.25
2022-11-14T08:53:07.680Z,97.68
2022-11-14T08:55:52.580Z,99.07
2022-11-14T08:58:37.496Z,104.55
2022-11-14T09:01:22.455Z,97.28
2022-11-14T09:04:08.634Z,98.75
2022-11-14T09:06:53.711Z,96.00
2022-11-14T09:09:38.635Z,99.13
2022-11-14T09:12:23.569Z,94.75
2022-11-14T09:15:08.717Z,94.30
2022-11-14T09:17:55.200Z,101.47
2022-11-14T09:20:40.669Z,93.85
2022-11-14T09:23:26.076Z,94.40
2022-11-14T09:26:11.520Z,91.82
2022-11-14T09:28:56.296Z,94.07
2022-11-14T09:31:41.261Z,97.20
2022-11-14T09:34:26.067Z,91.88
2022-11-14T09:37:11.303Z,91.88
2022-11-14T09:39:56.880Z,100.85
2022-11-14T09:43:03.703Z,92.50
2022-11-14T09:45:52.500Z,88.03
2022-11-14T09:48:37.424Z,87.65
2022-11-14T09:51:25.224Z,89.15
2022-11-14T09:54:25.041Z,90.75
2022-11-14T09:57:17.985Z,86.50
2022-11-14T10:00:12.825Z,86.95
2022-11-14T10:03:03.330Z,88.80
2022-11-14T10:05:57.581Z,88.88
2022-11-14T10:09:00.742Z,80.90
2022-11-14T10:12:09.035Z,81.75
2022-11-14T10:15:01.526Z,83.55
2022-11-14T10:18:16.065Z,85.80
2022-11-14T10:21:16.425Z,86.38
2022-11-14T10:24:40.665Z,86.07
2022-11-14T10:27:27.762Z,82.57
2022-11-14T10:30:16.791Z,83.93
2022-11-14T10:33:13.302Z,82.40
2022-11-14T10:36:13.997Z,82.78
2022-11-14T10:39:14.073Z,81.20
2022-11-14T10:42:07.660Z,75.50
2022-11-14T10:45:15.629Z,81.53
2022-11-14T10:48:08.905Z,75.78
2022-11-14T10:51:28.989Z,73.80
2022-11-14T10:54:21.697Z,78.47
2022-11-14T10:57:19.144Z,67.13
2022-11-14T11:00:18.558Z,73.88
2022-11-14T11:03:03.795Z,67.82
2022-11-14T11:05:52.003Z,71.72
2022-11-14T11:09:01.799Z,74.90
2022-11-14T11:12:18.329Z,71.53
2022-11-14T11:15:25.741Z,79.97
2022-11-14T11:18:32.874Z,79.25
2022-11-14T11:21:21.108Z,77.60
2022-11-14T11:24:06.546Z,70.75
2022-11-14T11:27:25.659Z,75.40
2022-11-14T11:30:23.046Z,71.00
2022-11-14T11:33:24.288Z,72.53
2022-11-14T11:39:00.162Z,67.37
2022-11-14T11:42:08.763Z,62.55
2022-11-14T11:44:55.855Z,82.68
2022-11-14T11:47:42.069Z,73.35
2022-11-14T11:50:27.508Z,70.93
2022-11-14T11:53:34.900Z,68.22
2022-11-14T11:56:25.570Z,71.18
2022-11-14T11:59:38.541Z,67.27
2022-11-14T12:02:26.072Z,66.97
2022-11-14T12:05:18.620Z,66.60
2022-11-14T12:08:09.605Z,63.10
2022-11-14T12:10:56.526Z,59.88
2022-11-14T12:13:53.808Z,59.28
2022-11-14T12:17:33.054Z,67.68
2022-11-14T12:20:51.493Z,64.93
2022-11-14T12:24:09.345Z,61.53
2022-11-14T12:27:10.476Z,64.90
2022-11-14T12:30:08.830Z,59.67
2022-11-14T12:33:19.144Z,54.65
2022-11-14T12:36:12.578Z,60.05
2022-11-14T12:38:59.075Z,62.90
2022-11-14T12:41:43.970Z,56.80
2022-11-14T12:44:28.856Z,58.00
2022-11-14T12:47:16.065Z,56.78
2022-11-14T12:50:02.579Z,53.03
2022-11-14T12:52:50.232Z,64.70
2022-11-14T12:55:35.388Z,58.17
2022-11-14T12:58:32.518Z,61.60
2022-11-14T13:01:40.791Z,56.92
2022-11-14T13:04:56.671Z,56.83
2022-11-14T13:07:59.161Z,62.53
2022-11-14T13:10:44.165Z,58.40
2022-11-14T13:13:48.506Z,54.92
2022-11-14T13:16:52.493Z,59.15
2022-11-14T13:20:04.918Z,57.75
2022-11-14T13:22:50.082Z,57.10
2022-11-14T13:25:35.009Z,53.60
2022-11-14T13:28:38.326Z,52.65
2022-11-14T13:31:25.539Z,54.25
2022-11-14T13:34:45.940Z,51.50
2022-11-14T13:37:42.401Z,52.40
2022-11-14T13:40:44.856Z,54.25
2022-11-14T13:43:57.200Z,55.50
2022-11-14T13:47:04.126Z,52.15
2022-11-14T13:50:00.500Z,49.75
2022-11-14T13:52:48.113Z,52.47
2022-11-14T13:55:53.402Z,48.10
2022-11-14T13:58:56.759Z,49.70
2022-11-14T14:01:55.263Z,48.00
2022-11-14T14:04:50.610Z,44.53
2022-11-14T14:07:57.136Z,46.63
2022-11-14T14:10:57.063Z,42.67
2022-11-14T14:14:32.182Z,40.15
2022-11-14T14:17:43.405Z,43.97
2022-11-14T14:20:37.158Z,40.63
2022-11-14T14:23:43.930Z,47.53
2022-11-14T14:27:16.248Z,47.85
2022-11-14T14:30:14.330Z,40.75
2022-11-14T14:33:08.393Z,42.53
2022-11-14T14:35:53.840Z,46.15
2022-11-14T14:38:38.973Z,41.88
2022-11-14T14:41:24.074Z,43.17
2022-11-14T14:44:39.264Z,39.70
2022-11-14T14:47:41.782Z,37.13
2022-11-14T14:50:40.608Z,42.50
2022-11-14T14:53:29.929Z,41.03
2022-11-14T14:56:20.828Z,41.20
2022-11-14T14:59:17.267Z,41.90
2022-11-14T15:02:02.538Z,38.25
2022-11-14T15:04:47.378Z,36.78
2022-11-14T15:07:32.495Z,38.88
2022-11-14T15:10:26.314Z,38.90
2022-11-14T15:13:15.657Z,41.08
2022-11-14T15:16:03.090Z,37.92
2022-11-14T15:18:50.562Z,42.42
2022-11-14T15:21:35.646Z,42.08
2022-11-14T15:24:23.486Z,37.53
2022-11-14T15:27:16.715Z,39.13
2022-11-14T15:30:07.971Z,41.90
2022-11-14T15:32:55.434Z,42.13
2022-11-14T15:35:41.133Z,38.97
2022-11-14T15:38:43.591Z,38.38
2022-11-14T15:41:31.290Z,42.63
2022-11-14T15:44:33.708Z,43.00
2022-11-14T15:47:22.234Z,36.60
2022-11-14T15:50:13.122Z,44.97
2022-11-14T15:53:01.228Z,42.90
2022-11-14T15:55:46.498Z,47.78
2022-11-14T15:58:32.818Z,41.70
2022-11-14T16:01:23.825Z,42.17
2022-11-14T16:07:02.646Z,40.55
2022-11-14T16:09:48.177Z,43.40
2022-11-14T16:12:33.317Z,40.15
2022-11-14T16:15:20.251Z,40.25
2022-11-14T16:18:06.239Z,40.22
2022-11-14T16:20:51.813Z,41.65
2022-11-14T16:23:36.979Z,38.50
2022-11-14T16:26:21.892Z,39.72
2022-11-14T16:29:07.810Z,41.97
2022-11-14T16:31:53.798Z,39.50
2022-11-14T16:34:38.806Z,49.78
2022-11-14T16:37:25.130Z,48.80
2022-11-14T16:40:23.111Z,45.35
2022-11-14T16:43:13.232Z,47.65
2022-11-14T16:45:58.044Z,46.75
2022-11-14T16:48:42.960Z,42.80
2022-11-14T16:54:33.257Z,43.45
2022-11-14T16:57:18.253Z,44.67
2022-11-14T17:00:12.154Z,42.58
2022-11-14T17:02:57.467Z,43.38
2022-11-14T17:05:52.119Z,44.75
2022-11-14T17:08:37.211Z,43.55
2022-11-14T17:11:22.850Z,43.50
2022-11-14T17:14:08.298Z,42.28
2022-11-14T17:16:53.210Z,41.63
2022-11-14T17:19:45.544Z,42.28
2022-11-14T17:22:30.416Z,46.38
2022-11-14T17:25:15.297Z,46.00
2022-11-14T17:28:00.669Z,47.20
2022-11-14T17:30:45.715Z,54.17
2022-11-14T17:33:30.952Z,44.42
2022-11-14T17:36:16.190Z,45.85
2022-11-14T17:39:01.309Z,46.05
2022-11-14T17:41:46.775Z,54.53
2022-11-14T17:44:31.559Z,48.70
2022-11-14T17:47:16.523Z,45.67
2022-11-14T17:50:01.388Z,53.67
2022-11-14T17:52:46.247Z,53.90
2022-11-14T17:55:31.265Z,47.28
2022-11-14T17:58:16.215Z,42.70
2022-11-14T18:01:01.351Z,44.00
2022-11-14T18:03:46.759Z,44.33
2022-11-14T18:06:33.346Z,44.47
2022-11-14T18:09:18.320Z,51.97
2022-11-14T18:12:03.393Z,46.25
2022-11-14T18:14:48.861Z,47.60
2022-11-14T18:17:34.083Z,45.85
2022-11-14T18:20:18.957Z,44.70
2022-11-14T18:23:03.829Z,47.00
2022-11-14T18:25:48.715Z,42.40
2022-11-14T18:28:33.862Z,42.95
2022-11-14T18:31:19.344Z,48.08
2022-11-14T18:34:05.273Z,47.03
2022-11-14T18:36:50.301Z,46.88
2022-11-14T18:39:35.281Z,50.72
2022-11-14T18:42:20.096Z,48.80
2022-11-14T18:45:05.919Z,52.05
2022-11-14T18:47:51.122Z,54.08
2022-11-14T18:50:36.610Z,53.15
2022-11-14T18:53:21.816Z,50.78
2022-11-14T18:56:09.938Z,50.50
2022-11-14T18:58:56.394Z,51.10
2022-11-14T19:01:41.763Z,56.70
2022-11-14T19:04:27.031Z,53.30
2022-11-14T19:07:12.105Z,52.10
2022-11-14T19:09:57.093Z,47.22
2022-11-14T19:12:42.671Z,49.45
2022-11-14T19:15:27.739Z,52.28
2022-11-14T19:18:12.698Z,50.25
2022-11-14T19:21:04.049Z,47.45
2022-11-14T19:23:50.479Z,52.33
2022-11-14T19:26:35.809Z,51.38
2022-11-14T19:29:21.034Z,50.38
2022-11-14T19:32:06.419Z,48.75
2022-11-14T19:34:51.347Z,46.70
2022-11-14T19:37:36.384Z,51.70
2022-11-14T19:40:21.506Z,53.05
2022-11-14T19:43:07.274Z,50.88
2022-11-14T19:45:52.273Z,52.97
2022-11-14T19:48:38.543Z,51.63
2022-11-14T19:51:24.501Z,53.00
2022-11-14T19:54:11.265Z,52.05
2022-11-14T19:56:56.577Z,52.92
2022-11-14T19:59:41.499Z,47.80
2022-11-14T20:02:28.517Z,47.33
2022-11-14T20:05:13.529Z,51.72
2022-11-14T20:07:58.561Z,51.35
2022-11-14T20:10:54.651Z,52.03
2022-11-14T20:13:42.264Z,48.55
2022-11-14T20:16:31.378Z,50.25
2022-11-14T20:19:16.944Z,51.25
2022-11-14T20:22:02.233Z,49.65
2022-11-14T20:24:47.351Z,53.47
2022-11-14T20:27:32.230Z,55.40
2022-11-14T20:30:17.246Z,51.05
2022-11-14T20:33:02.190Z,53.78
2022-11-14T20:35:47.835Z,49.35
2022-11-14T20:38:35.917Z,49.42
2022-11-14T20:41:21.793Z,50.50
2022-11-14T20:44:07.358Z,56.22
2022-11-14T20:46:55.380Z,55.45
2022-11-14T20:49:40.277Z,57.88
2022-11-14T20:52:25.501Z,55.35
2022-11-14T20:55:11.875Z,51.03
2022-11-14T20:57:57.145Z,52.03
2022-11-14T21:00:42.379Z,53.47
2022-11-14T21:03:27.445Z,59.90
2022-11-14T21:06:13.659Z,52.50
2022-11-14T21:08:58.923Z,53.45
2022-11-14T21:11:44.156Z,49.78
2022-11-14T21:14:29.899Z,55.55
2022-11-14T21:17:14.926Z,52.15
2022-11-14T21:19:59.931Z,49.67
2022-11-14T21:22:44.950Z,51.50
2022-11-14T21:25:30.985Z,51.35
2022-11-14T21:28:17.685Z,51.92
2022-11-14T21:31:33.230Z,50.58
2022-11-14T21:34:21.066Z,50.58
2022-11-14T21:37:05.843Z,51.70
2022-11-14T21:39:50.846Z,57.47
2022-11-14T21:42:35.819Z,57.78
2022-11-14T21:45:20.916Z,63.40
2022-11-14T21:48:05.984Z,57.45
2022-11-14T21:50:50.809Z,60.47
2022-11-14T21:53:36.552Z,63.42
2022-11-14T21:56:24.454Z,64.80
2022-11-14T21:59:14.058Z,65.05
2022-11-14T22:02:18.572Z,59.57
2022-11-14T22:05:03.766Z,60.30
2022-11-14T22:07:48.906Z,57.58
2022-11-14T22:10:33.912Z,64.55
2022-11-14T22:13:19.452Z,56.35
2022-11-14T22:16:10.255Z,63.00
2022-11-14T22:19:00.499Z,55.30
2022-11-14T22:21:49.811Z,58.97
2022-11-14T22:24:35.542Z,55.97
2022-11-14T22:27:20.490Z,55.45
2022-11-14T22:30:05.759Z,59.95
2022-11-14T22:32:50.632Z,56.15
2022-11-14T22:35:35.671Z,60.38
2022-11-14T22:38:20.613Z,59.67
2022-11-14T22:41:08.194Z,62.53
2022-11-14T22:43:53.461Z,58.88
2022-11-14T22:46:39.027Z,60.78
2022-11-14T22:49:23.821Z,62.33
2022-11-14T22:52:08.866Z,63.75
2022-11-14T22:54:53.765Z,60.28
2022-11-14T22:57:38.727Z,61.40
2022-11-14T23:00:23.510Z,57.72
2022-11-14T23:03:08.525Z,61.33
2022-11-14T23:05:53.417Z,59.13
2022-11-14T23:08:39.165Z,59.15
2022-11-14T23:11:29.691Z,62.47
2022-11-14T23:14:14.811Z,62.13
2022-11-14T23:16:59.820Z,60.97
2022-11-14T23:19:44.764Z,60.92
2022-11-14T23:22:29.522Z,68.53
2022-11-14T23:25:14.492Z,67.80
2022-11-14T23:27:59.415Z,64.80
2022-11-14T23:30:44.369Z,64.28
2022-11-14T23:33:29.806Z,63.03
2022-11-14T23:36:15.425Z,60.63
2022-11-14T23:39:00.449Z,65.47
2022-11-14T23:41:45.358Z,61.85
2022-11-14T23:44:30.548Z,68.15
2022-11-14T23:47:15.346Z,65.22
2022-11-14T23:50:00.344Z,62.78
2022-11-14T23:52:45.184Z,60.33
2022-11-14T23:55:30.120Z,68.47
2022-11-14T23:58:15.090Z,68.68
